Time;durP1;ratioP1;P1;durP2;ratioP2;P2;SDS_P1;SDS_P2;PMS_P1;PMS_P2;Temp;Humidity;BMP_temperature;BMP_pressure;BME280_temperature;BME280_humidity;BME280_pressure;Samples;Min_cycle;Max_cycle;Signal;HPM_P1;HPM_P2
2020/12/08 00:01:49;;;;;;;77.28;33.50;;;;;;;-1.52;100.00;100078.75;4969232;28;20046;-67
2020/12/08 00:04:14;;;;;;;77.30;32.10;;;;;;;-1.51;100.00;100076.00;4970000;28;20042;-67
2020/12/08 00:06:40;;;;;;;81.95;34.95;;;;;;;-1.47;100.00;100076.66;4969172;28;20034;-67
2020/12/08 00:09:06;;;;;;;75.43;31.60;;;;;;;-1.37;100.00;100073.25;4969744;28;20035;-67
2020/12/08 00:11:31;;;;;;;71.32;28.95;;;;;;;-1.23;100.00;100079.34;4969326;28;20566;-69
2020/12/08 00:13:57;;;;;;;69.80;28.60;;;;;;;-1.19;100.00;100078.16;4969155;28;20043;-67
2020/12/08 00:16:22;;;;;;;64.30;28.05;;;;;;;-1.12;100.00;100076.75;4968924;28;20027;-66
2020/12/08 00:18:48;;;;;;;72.30;31.13;;;;;;;-1.07;100.00;100077.28;4969081;28;20031;-67
2020/12/08 00:21:13;;;;;;;80.78;30.70;;;;;;;-1.08;100.00;100075.59;4969232;28;20415;-67
2020/12/08 00:23:39;;;;;;;79.65;32.40;;;;;;;-1.05;100.00;100076.22;4968506;28;20035;-66
2020/12/08 00:26:04;;;;;;;68.28;28.38;;;;;;;-1.03;100.00;100072.63;4968549;28;20051;-67
2020/12/08 00:28:32;;;;;;;68.70;27.85;;;;;;;-0.98;100.00;100073.97;4967099;28;20109;-67
2020/12/08 00:30:57;;;;;;;64.72;29.80;;;;;;;-0.91;100.00;100074.38;4969024;28;20562;-67
2020/12/08 00:33:23;;;;;;;69.18;28.92;;;;;;;-0.87;100.00;100075.81;4967860;28;20034;-66
2020/12/08 00:35:48;;;;;;;71.00;30.55;;;;;;;-0.85;100.00;100072.16;4969068;28;20027;-66
2020/12/08 00:38:14;;;;;;;70.30;28.98;;;;;;;-0.82;100.00;100074.53;4967555;28;20122;-66
2020/12/08 00:40:40;;;;;;;67.75;29.30;;;;;;;-0.76;100.00;100069.78;4968783;28;20035;-67
2020/12/08 00:43:06;;;;;;;65.60;27.05;;;;;;;-0.71;100.00;100068.47;4967917;28;20089;-66
2020/12/08 00:45:33;;;;;;;63.15;27.35;;;;;;;-0.67;100.00;100063.81;4968896;28;20041;-67
2020/12/08 00:47:58;;;;;;;64.70;28.02;;;;;;;-0.66;100.00;100065.50;4967233;28;20106;-67
2020/12/08 00:50:24;;;;;;;61.97;27.25;;;;;;;-0.68;100.00;100070.06;4969008;28;20037;-66
2020/12/08 00:52:50;;;;;;;66.65;26.83;;;;;;;-0.66;100.00;100058.44;4967756;28;20113;-66
2020/12/08 00:55:15;;;;;;;60.28;25.98;;;;;;;-0.63;100.00;100055.59;4968724;28;20054;-67
2020/12/08 00:57:41;;;;;;;52.97;23.58;;;;;;;-0.68;100.00;100059.53;4964108;28;20089;-67
2020/12/08 01:00:06;;;;;;;56.30;24.30;;;;;;;-0.67;100.00;100051.50;4969442;28;20038;-67
2020/12/08 01:02:32;;;;;;;57.30;25.40;;;;;;;-0.69;100.00;100060.47;4972041;28;20372;-67
2020/12/08 01:04:58;;;;;;;54.80;23.88;;;;;;;-0.73;100.00;100059.03;4971963;28;20245;-67
2020/12/08 01:07:23;;;;;;;53.25;24.83;;;;;;;-0.75;100.00;100058.28;4971326;28;20030;-66
2020/12/08 01:09:49;;;;;;;56.33;23.70;;;;;;;-0.81;100.00;100056.94;4971673;28;20031;-67
2020/12/08 01:12:14;;;;;;;53.63;25.65;;;;;;;-0.89;100.00;100056.69;4971109;28;20082;-67
2020/12/08 01:14:40;;;;;;;53.40;23.50;;;;;;;-0.95;100.00;100051.88;4971918;28;20105;-67
2020/12/08 01:17:06;;;;;;;56.92;23.73;;;;;;;-0.99;100.00;100053.03;4970938;28;20163;-67
2020/12/08 01:19:32;;;;;;;51.63;23.35;;;;;;;-1.15;100.00;100048.88;4971669;28;20030;-67
2020/12/08 01:21:57;;;;;;;57.72;25.92;;;;;;;-1.29;100.00;100048.19;4971118;28;20039;-66
2020/12/08 01:24:23;;;;;;;61.30;27.65;;;;;;;-1.38;100.00;100061.06;4971673;28;20093;-67
2020/12/08 01:26:48;;;;;;;52.33;24.40;;;;;;;-1.43;100.00;100064.97;4970473;28;20446;-66
2020/12/08 01:29:14;;;;;;;66.00;28.17;;;;;;;-1.47;100.00;100063.50;4972068;28;21746;-67
2020/12/08 01:31:40;;;;;;;70.95;28.98;;;;;;;-1.51;100.00;100070.75;4971636;28;20041;-66
2020/12/08 01:34:07;;;;;;;56.60;25.73;;;;;;;-1.55;100.00;100060.59;4971435;28;20086;-66
2020/12/08 01:36:33;;;;;;;60.90;26.58;;;;;;;-1.56;100.00;100062.34;4971329;28;20031;-66
2020/12/08 01:38:58;;;;;;;73.93;28.65;;;;;;;-1.62;100.00;100063.63;4971218;28;20179;-67
2020/12/08 01:41:24;;;;;;;79.03;31.50;;;;;;;-1.69;100.00;100066.81;4971442;28;20030;-66
2020/12/08 01:43:52;;;;;;;60.33;27.08;;;;;;;-1.72;100.00;100061.75;4971155;28;20034;-66
2020/12/08 01:46:20;;;;;;;63.33;26.40;;;;;;;-1.77;100.00;100064.69;4971380;28;20034;-67
2020/12/08 01:48:47;;;;;;;62.42;25.60;;;;;;;-1.83;100.00;100071.22;4971206;28;20081;-66
2020/12/08 01:51:15;;;;;;;60.83;27.27;;;;;;;-1.89;100.00;100074.28;4971837;28;20054;-66
2020/12/08 01:53:41;;;;;;;60.08;27.75;;;;;;;-1.91;100.00;100076.19;4970864;28;20045;-66
2020/12/08 01:56:08;;;;;;;67.68;28.42;;;;;;;-1.94;100.00;100078.19;4972250;28;20125;-66
2020/12/08 01:58:33;;;;;;;69.25;30.10;;;;;;;-1.96;100.00;100073.03;4968666;28;20074;-66
2020/12/08 02:00:59;;;;;;;67.55;29.95;;;;;;;-1.96;100.00;100073.03;4972159;28;20031;-66
2020/12/08 02:03:26;;;;;;;70.97;30.17;;;;;;;-1.92;100.00;100071.00;4971974;28;20035;-66
2020/12/08 02:05:53;;;;;;;76.90;32.78;;;;;;;-1.86;100.00;100081.97;4972073;28;20109;-67
2020/12/08 02:08:34;;;;;;;79.55;36.55;;;;;;;-1.79;100.00;100074.50;4969095;28;20046;-66
2020/12/08 02:11:00;;;;;;;79.18;34.00;;;;;;;-1.69;100.00;100077.31;4971348;28;20035;-66
2020/12/08 02:13:26;;;;;;;74.80;34.83;;;;;;;-1.65;100.00;100079.63;4971408;28;20460;-66
2020/12/08 02:15:52;;;;;;;80.15;33.47;;;;;;;-1.60;100.00;100076.69;4970919;28;20073;-66
2020/12/08 02:18:19;;;;;;;73.47;32.72;;;;;;;-1.54;100.00;100084.13;4971024;28;20042;-66
2020/12/08 02:20:44;;;;;;;67.68;31.58;;;;;;;-1.51;100.00;100073.38;4970815;28;20027;-67
2020/12/08 02:23:10;;;;;;;71.25;32.08;;;;;;;-1.54;100.00;100084.13;4971557;28;20042;-66
2020/12/08 02:25:36;;;;;;;74.25;31.38;;;;;;;-1.52;100.00;100074.34;4970740;28;20031;-66
2020/12/08 02:28:03;;;;;;;68.18;33.08;;;;;;;-1.40;100.00;100072.66;4985763;28;20042;-66
2020/12/08 02:30:28;;;;;;;72.07;33.50;;;;;;;-1.27;100.00;100070.81;4970435;28;20031;-66
2020/12/08 02:32:54;;;;;;;70.40;31.85;;;;;;;-1.16;100.00;100068.25;4970771;28;20019;-66
2020/12/08 02:35:19;;;;;;;80.43;33.15;;;;;;;-1.05;100.00;100059.59;4970429;28;20530;-67
2020/12/08 02:37:46;;;;;;;67.45;31.38;;;;;;;-0.99;100.00;100056.50;4970090;28;20070;-66
2020/12/08 02:40:12;;;;;;;66.60;30.33;;;;;;;-0.87;100.00;100055.59;4971000;28;20054;-66
2020/12/08 02:42:38;;;;;;;70.38;31.38;;;;;;;-0.85;100.00;100074.78;4970619;28;20042;-66
2020/12/08 02:45:04;;;;;;;81.68;35.42;;;;;;;-0.83;100.00;100072.88;4970682;28;20030;-66
2020/12/08 02:47:30;;;;;;;73.30;34.92;;;;;;;-0.80;100.00;100072.66;4970465;28;20035;-66
2020/12/08 02:49:56;;;;;;;72.22;33.85;;;;;;;-0.76;100.00;100075.88;4969798;28;20062;-66
2020/12/08 02:52:22;;;;;;;67.28;31.73;;;;;;;-0.72;100.00;100076.50;4970265;28;20115;-67
2020/12/08 02:54:48;;;;;;;71.22;32.30;;;;;;;-0.72;100.00;100073.88;4969328;28;20530;-66
2020/12/08 02:57:15;;;;;;;72.20;33.40;;;;;;;-0.71;100.00;100072.91;4969897;28;20042;-66
2020/12/08 02:59:41;;;;;;;72.13;33.03;;;;;;;-0.67;100.00;100061.19;4964792;28;20070;-66
2020/12/08 03:02:06;;;;;;;68.88;31.90;;;;;;;-0.65;100.00;100064.56;4967308;28;20045;-67
2020/12/08 03:04:32;;;;;;;63.83;29.60;;;;;;;-0.61;100.00;100073.91;4969901;28;20030;-68
2020/12/08 03:06:58;;;;;;;65.32;30.13;;;;;;;-0.61;100.00;100069.47;4969930;28;20035;-67
2020/12/08 03:09:24;;;;;;;69.43;30.98;;;;;;;-0.61;100.00;100055.47;4969858;28;20031;-66
2020/12/08 03:11:50;;;;;;;67.97;29.75;;;;;;;-0.59;100.00;100064.94;4970176;28;20411;-67
2020/12/08 03:14:17;;;;;;;64.35;29.52;;;;;;;-0.55;100.00;100070.84;4969611;28;20130;-66
2020/12/08 03:16:42;;;;;;;59.03;27.65;;;;;;;-0.53;100.00;100069.75;4968794;28;20125;-66
2020/12/08 03:19:08;;;;;;;60.50;29.45;;;;;;;-0.53;100.00;100071.56;4969637;28;20026;-66
2020/12/08 03:21:34;;;;;;;61.30;26.73;;;;;;;-0.49;100.00;100069.53;4969504;28;20070;-67
2020/12/08 03:24:00;;;;;;;57.00;27.27;;;;;;;-0.53;100.00;100069.75;4968524;28;20046;-66
2020/12/08 03:26:26;;;;;;;61.20;27.55;;;;;;;-0.64;100.00;100071.50;4969033;28;20027;-67
2020/12/08 03:28:52;;;;;;;58.10;28.63;;;;;;;-0.74;100.00;100068.72;4969806;28;20097;-66
2020/12/08 03:31:18;;;;;;;65.75;28.17;;;;;;;-0.81;100.00;100070.09;4969505;28;20495;-66
2020/12/08 03:33:43;;;;;;;57.35;25.75;;;;;;;-0.83;100.00;100064.97;4969463;28;20031;-66
2020/12/08 03:36:11;;;;;;;54.65;24.88;;;;;;;-0.81;100.00;100070.94;4969533;28;20039;-66
2020/12/08 03:38:37;;;;;;;55.80;24.95;;;;;;;-0.84;100.00;100073.81;4969728;28;20105;-66
2020/12/08 03:41:02;;;;;;;55.28;25.17;;;;;;;-0.88;100.00;100076.78;4969639;28;20118;-66
2020/12/08 03:43:28;;;;;;;49.85;23.55;;;;;;;-0.93;100.00;100078.91;4969721;28;20455;-66
2020/12/08 03:45:54;;;;;;;54.40;24.00;;;;;;;-0.96;100.00;100074.69;4969594;28;20093;-66
2020/12/08 03:48:19;;;;;;;57.55;25.80;;;;;;;-1.03;100.00;100073.47;4969083;28;20034;-66
2020/12/08 03:50:45;;;;;;;57.70;26.45;;;;;;;-1.10;100.00;100077.50;4968908;28;20117;-66
2020/12/08 03:53:10;;;;;;;56.85;24.40;;;;;;;-1.11;100.00;100071.38;4966708;28;20039;-67
2020/12/08 03:55:36;;;;;;;52.08;23.33;;;;;;;-1.10;100.00;100074.88;4968277;28;20419;-66
2020/12/08 03:58:01;;;;;;;49.88;23.30;;;;;;;-1.06;100.00;100073.69;4968949;28;20073;-66
2020/12/08 04:00:27;;;;;;;53.58;23.92;;;;;;;-1.05;100.00;100075.38;4967947;28;20142;-66
2020/12/08 04:02:52;;;;;;;54.33;22.35;;;;;;;-1.06;100.00;100078.94;4969042;28;20039;-66
2020/12/08 04:05:18;;;;;;;53.10;25.15;;;;;;;-1.06;100.00;100077.16;4969796;28;20504;-66
2020/12/08 04:07:46;;;;;;;61.63;26.00;;;;;;;-1.06;100.00;100077.16;4969251;28;20045;-66
2020/12/08 04:10:11;;;;;;;60.85;27.50;;;;;;;-1.03;100.00;100077.91;4969655;28;20107;-66
2020/12/08 04:12:37;;;;;;;58.10;27.38;;;;;;;-1.02;100.00;100072.50;4969131;28;20062;-66
2020/12/08 04:15:03;;;;;;;60.60;24.38;;;;;;;-1.01;100.00;100079.47;4969428;28;20030;-66
2020/12/08 04:17:28;;;;;;;60.03;26.02;;;;;;;-0.99;100.00;100082.84;4968291;28;20490;-66
2020/12/08 04:19:54;;;;;;;56.67;24.95;;;;;;;-0.98;100.00;100086.31;4969603;28;20862;-66
2020/12/08 04:22:19;;;;;;;52.08;23.83;;;;;;;-0.99;100.00;100082.84;4968795;28;20555;-67
2020/12/08 04:24:45;;;;;;;57.03;24.42;;;;;;;-0.98;100.00;100083.69;4969711;28;20027;-66
2020/12/08 04:27:10;;;;;;;49.50;22.45;;;;;;;-1.00;100.00;100086.44;4968614;28;20031;-66
2020/12/08 04:29:36;;;;;;;52.53;23.63;;;;;;;-1.00;100.00;100082.94;4969594;28;20038;-66
2020/12/08 04:32:01;;;;;;;54.10;23.13;;;;;;;-1.06;100.00;100076.31;4968580;28;20369;-66
2020/12/08 04:34:27;;;;;;;52.72;21.98;;;;;;;-1.15;100.00;100090.16;4969706;28;20513;-66
2020/12/08 04:36:52;;;;;;;48.45;21.05;;;;;;;-1.24;100.00;100090.81;4971992;28;20039;-67
2020/12/08 04:39:18;;;;;;;52.83;21.60;;;;;;;-1.27;100.00;100099.75;4973160;28;20037;-66
2020/12/08 04:41:44;;;;;;;47.00;22.27;;;;;;;-1.28;100.00;100094.63;4966684;28;20576;-66
2020/12/08 04:44:10;;;;;;;54.38;22.58;;;;;;;-1.33;100.00;100095.78;4972727;28;20031;-66
2020/12/08 04:46:38;;;;;;;51.10;23.75;;;;;;;-1.34;100.00;100098.53;4971800;28;20113;-66
2020/12/08 04:49:03;;;;;;;57.05;22.23;;;;;;;-1.37;100.00;100101.34;4986770;28;20110;-66
2020/12/08 04:51:29;;;;;;;59.00;24.95;;;;;;;-1.36;100.00;100103.03;4971706;28;20130;-66
2020/12/08 04:53:54;;;;;;;64.60;29.15;;;;;;;-1.37;100.00;100114.50;4972239;28;20054;-66
2020/12/08 04:56:20;;;;;;;68.30;28.80;;;;;;;-1.39;100.00;100117.25;4971892;28;20034;-66
2020/12/08 04:58:45;;;;;;;56.60;26.85;;;;;;;-1.41;100.00;100113.88;4972652;28;20103;-66
2020/12/08 05:01:25;;;;;;;55.03;26.83;;;;;;;-1.41;100.00;100110.41;4971838;28;20521;-66
2020/12/08 05:03:57;;;;;;;56.78;25.15;;;;;;;-1.41;100.00;100113.88;4972177;28;20415;-65
2020/12/08 05:06:22;;;;;;;53.15;24.00;;;;;;;-1.38;100.00;100115.47;4987061;28;20051;-66
2020/12/08 05:09:00;;;;;;;46.20;21.27;;;;;;;-1.37;100.00;100119.78;4972157;28;20073;-66
2020/12/08 05:11:28;;;;;;;51.40;24.20;;;;;;;-1.37;100.00;100119.78;4971942;28;20498;-66
2020/12/08 05:14:00;;;;;;;57.17;24.60;;;;;;;-1.35;100.00;100108.22;4971812;28;20027;-66
2020/12/08 05:16:25;;;;;;;59.70;24.52;;;;;;;-1.33;100.00;100106.31;4971425;28;20043;-66
2020/12/08 05:18:51;;;;;;;53.22;24.00;;;;;;;-1.28;100.00;100107.78;4972185;28;20088;-66
2020/12/08 05:21:16;;;;;;;71.03;27.80;;;;;;;-1.24;100.00;100104.81;4971699;28;20159;-66
2020/12/08 05:23:44;;;;;;;71.43;29.27;;;;;;;-1.21;100.00;100107.22;4971604;28;20126;-66
2020/12/08 05:26:11;;;;;;;65.00;25.38;;;;;;;-1.20;100.00;100108.06;4971435;28;20027;-66
2020/12/08 05:28:38;;;;;;;61.17;25.70;;;;;;;-1.22;100.00;100110.78;4971421;28;20066;-66
2020/12/08 05:31:04;;;;;;;53.72;22.55;;;;;;;-1.25;100.00;100115.47;4972047;28;20085;-66
2020/12/08 05:33:29;;;;;;;51.05;21.90;;;;;;;-1.30;100.00;100118.41;4971893;28;20027;-66
2020/12/08 05:35:57;;;;;;;47.08;21.88;;;;;;;-1.31;100.00;100114.06;4972779;28;20035;-65
2020/12/08 05:38:33;;;;;;;54.42;23.58;;;;;;;-1.37;100.00;100125.03;4971895;28;20035;-66
2020/12/08 05:41:01;;;;;;;59.03;23.90;;;;;;;-1.43;100.00;100125.47;4972242;28;20399;-66
2020/12/08 05:43:34;;;;;;;62.63;23.50;;;;;;;-1.51;100.00;100120.72;4971834;28;20395;-66
2020/12/08 05:46:03;;;;;;;62.28;24.70;;;;;;;-1.57;100.00;100114.13;4971537;28;20031;-66
2020/12/08 05:48:30;;;;;;;50.35;22.08;;;;;;;-1.61;100.00;100131.09;4971323;28;20037;-66
2020/12/08 05:50:56;;;;;;;56.60;23.15;;;;;;;-1.65;100.00;100126.97;4972099;28;20077;-66
2020/12/08 05:53:21;;;;;;;49.78;22.25;;;;;;;-1.71;100.00;100130.00;5002362;28;20088;-66
2020/12/08 05:55:47;;;;;;;50.25;21.08;;;;;;;-1.76;100.00;100133.91;4971874;28;20041;-66
2020/12/08 05:58:12;;;;;;;51.85;20.77;;;;;;;-1.73;100.00;100139.81;4985881;28;20039;-66
2020/12/08 06:00:39;;;;;;;50.22;19.88;;;;;;;-1.69;100.00;100145.69;4969314;28;20447;-66
2020/12/08 06:03:12;;;;;;;56.85;22.40;;;;;;;-1.79;100.00;100149.91;4965227;28;20419;-65
2020/12/08 06:05:40;;;;;;;51.42;21.00;;;;;;;-1.86;100.00;100155.59;4968519;28;20066;-66
2020/12/08 06:08:20;;;;;;;57.20;21.75;;;;;;;-1.88;100.00;100157.47;4970849;28;20045;-66
2020/12/08 06:10:49;;;;;;;57.92;21.88;;;;;;;-1.90;100.00;100151.47;4970482;28;20065;-66
2020/12/08 06:13:25;;;;;;;50.72;21.17;;;;;;;-1.88;100.00;100148.72;4971306;28;20062;-66
2020/12/08 06:15:51;;;;;;;44.50;19.70;;;;;;;-1.89;100.00;100153.16;4971172;28;20031;-66
2020/12/08 06:18:34;;;;;;;47.22;18.45;;;;;;;-1.90;100.00;100154.09;4969242;28;20039;-65
2020/12/08 06:21:01;;;;;;;54.97;21.35;;;;;;;-1.95;100.00;100156.22;4970906;28;20031;-66
2020/12/08 06:23:27;;;;;;;51.50;20.40;;;;;;;-2.00;100.00;100153.03;4971145;28;20034;-66
2020/12/08 06:26:01;;;;;;;53.20;23.00;;;;;;;-2.06;100.00;100161.31;4971193;28;20033;-66
2020/12/08 06:28:27;;;;;;;59.90;21.77;;;;;;;-2.09;100.00;100159.75;4970751;28;20023;-66
2020/12/08 06:31:02;;;;;;;54.47;22.20;;;;;;;-2.10;100.00;100160.69;4971188;28;20097;-65
2020/12/08 06:33:30;;;;;;;51.63;21.92;;;;;;;-2.10;100.00;100171.22;4985552;28;20042;-66
2020/12/08 06:35:59;;;;;;;59.72;22.80;;;;;;;-2.06;100.00;100169.19;4971282;28;20035;-65
2020/12/08 06:38:24;;;;;;;59.47;23.70;;;;;;;-2.06;100.00;100166.56;4970259;28;20038;-66
2020/12/08 06:40:52;;;;;;;52.67;21.00;;;;;;;-2.08;100.00;100169.31;4971102;28;20039;-66
2020/12/08 06:43:17;;;;;;;57.55;23.92;;;;;;;-2.10;100.00;100168.59;4969305;28;20033;-66
2020/12/08 06:45:43;;;;;;;53.28;21.00;;;;;;;-2.13;100.00;100162.69;4970950;28;20380;-66
2020/12/08 06:48:16;;;;;;;55.58;23.40;;;;;;;-2.17;100.00;100164.66;4970195;28;20399;-65
2020/12/08 06:50:41;;;;;;;62.97;23.70;;;;;;;-2.17;100.00;100169.91;4970667;28;20082;-66
2020/12/08 06:53:07;;;;;;;53.13;21.65;;;;;;;-2.18;100.00;100160.34;4970405;28;20034;-66
2020/12/08 06:55:43;;;;;;;51.63;21.25;;;;;;;-2.22;100.00;100168.53;4970439;28;20050;-65
2020/12/08 06:58:09;;;;;;;50.08;19.50;;;;;;;-2.24;100.00;100165.19;4970337;28;20437;-65
2020/12/08 07:00:34;;;;;;;58.15;23.40;;;;;;;-2.24;100.00;100170.44;4970331;28;20042;-66
2020/12/08 07:03:00;;;;;;;54.53;21.73;;;;;;;-2.24;100.00;100170.44;4963637;28;20161;-66
2020/12/08 07:05:28;;;;;;;58.20;21.85;;;;;;;-2.26;100.00;100177.56;4967059;28;20112;-66
2020/12/08 07:07:57;;;;;;;40.63;17.55;;;;;;;-2.30;100.00;100176.09;4959223;28;20117;-66
2020/12/08 07:10:23;;;;;;;47.90;17.80;;;;;;;-2.36;100.00;100186.06;4968041;28;20324;-66
2020/12/08 07:12:51;;;;;;;50.28;19.90;;;;;;;-2.35;100.00;100189.53;4967408;28;20439;-65
2020/12/08 07:15:18;;;;;;;52.92;20.63;;;;;;;-2.37;100.00;100194.03;4967557;28;20031;-66
2020/12/08 07:17:51;;;;;;;52.15;21.63;;;;;;;-2.42;100.00;100196.13;4968031;28;20057;-66
2020/12/08 07:20:17;;;;;;;44.83;20.77;;;;;;;-2.49;100.00;100206.19;4982270;28;20430;-66
2020/12/08 07:22:44;;;;;;;51.65;20.55;;;;;;;-2.53;100.00;100211.72;4968356;28;20039;-66
2020/12/08 07:25:12;;;;;;;44.22;19.75;;;;;;;-2.57;100.00;100216.34;4967160;28;20046;-67
2020/12/08 07:27:42;;;;;;;61.17;22.83;;;;;;;-2.57;100.00;100224.22;4967661;28;20169;-66
2020/12/08 07:30:08;;;;;;;60.38;24.08;;;;;;;-2.59;100.00;100220.84;4967722;28;20555;-66
2020/12/08 07:32:33;;;;;;;51.00;21.35;;;;;;;-2.63;100.00;100220.19;4967653;28;20106;-66
2020/12/08 07:34:59;;;;;;;46.42;19.48;;;;;;;-2.64;100.00;100221.13;4967233;28;20094;-66
2020/12/08 07:37:24;;;;;;;56.95;20.83;;;;;;;-2.68;100.00;100229.31;4967178;28;20035;-66
2020/12/08 07:39:52;;;;;;;55.83;20.80;;;;;;;-2.70;100.00;100233.81;4967413;28;20118;-66
2020/12/08 07:42:18;;;;;;;64.22;23.73;;;;;;;-2.71;100.00;100224.25;4966923;28;20054;-66
2020/12/08 07:44:59;;;;;;;64.32;23.30;;;;;;;-2.69;100.00;100227.63;4967080;28;20034;-66
2020/12/08 07:47:25;;;;;;;64.40;25.40;;;;;;;-2.65;100.00;100231.75;4966152;28;20041;-66
2020/12/08 07:49:51;;;;;;;53.50;22.42;;;;;;;-2.62;100.00;100235.00;4967414;28;20452;-66
2020/12/08 07:52:17;;;;;;;63.92;24.73;;;;;;;-2.55;100.00;100239.91;4965888;28;20122;-66
2020/12/08 07:54:44;;;;;;;61.70;25.80;;;;;;;-2.53;100.00;100230.97;4967194;28;20031;-66
2020/12/08 07:57:09;;;;;;;55.92;24.55;;;;;;;-2.47;100.00;100235.81;4966928;28;20491;-66
2020/12/08 07:59:35;;;;;;;62.90;23.77;;;;;;;-2.44;100.00;100237.41;4966192;28;20037;-67
2020/12/08 08:02:01;;;;;;;70.03;25.77;;;;;;;-2.39;100.00;100237.97;4965006;28;20125;-67
2020/12/08 08:04:27;;;;;;;84.90;29.33;;;;;;;-2.35;100.00;100236.84;4962096;28;20027;-67
2020/12/08 08:06:52;;;;;;;69.90;27.45;;;;;;;-2.31;100.00;100233.03;4965924;28;20121;-67
2020/12/08 08:09:18;;;;;;;58.38;25.13;;;;;;;-2.24;100.00;100225.63;4967865;28;20421;-67
2020/12/08 08:11:44;;;;;;;62.72;25.08;;;;;;;-2.19;100.00;100234.03;4970413;28;20033;-67
2020/12/08 08:14:09;;;;;;;60.47;23.63;;;;;;;-2.15;100.00;100231.13;4970635;28;20034;-66
2020/12/08 08:16:35;;;;;;;56.25;22.58;;;;;;;-2.07;100.00;100235.84;4968974;28;20114;-66
2020/12/08 08:19:01;;;;;;;59.22;24.55;;;;;;;-2.03;100.00;100232.09;4971624;28;20170;-66
2020/12/08 08:21:27;;;;;;;56.17;21.98;;;;;;;-1.95;100.00;100240.31;4970198;28;20503;-66
2020/12/08 08:23:52;;;;;;;51.17;22.67;;;;;;;-1.90;100.00;100251.38;4970769;28;20039;-66
2020/12/08 08:26:18;;;;;;;56.70;22.63;;;;;;;-1.91;100.00;100248.84;4970360;28;20365;-66
2020/12/08 08:28:44;;;;;;;53.85;23.80;;;;;;;-1.87;100.00;100256.41;4986421;28;20023;-66
2020/12/08 08:31:09;;;;;;;62.92;25.10;;;;;;;-1.77;100.00;100253.19;4970500;28;20027;-66
2020/12/08 08:33:35;;;;;;;57.63;23.35;;;;;;;-1.69;100.00;100258.78;4969809;28;20035;-66
2020/12/08 08:36:01;;;;;;;61.00;24.92;;;;;;;-1.63;100.00;100266.25;4968532;28;20416;-66
2020/12/08 08:38:26;;;;;;;63.38;25.27;;;;;;;-1.59;100.00;100265.13;4971144;28;20740;-67
2020/12/08 08:40:56;;;;;;;52.72;21.58;;;;;;;-1.52;100.00;100262.91;4970659;28;20432;-67
2020/12/08 08:43:22;;;;;;;56.65;24.35;;;;;;;-1.50;100.00;100269.78;4970728;28;20535;-67
2020/12/08 08:45:47;;;;;;;63.83;26.10;;;;;;;-1.51;100.00;100260.16;4970889;28;20035;-67
2020/12/08 08:48:13;;;;;;;69.25;27.23;;;;;;;-1.48;100.00;100265.22;4969949;28;20109;-67
2020/12/08 08:50:39;;;;;;;57.67;25.80;;;;;;;-1.42;100.00;100271.88;4970039;28;20208;-66
2020/12/08 08:53:04;;;;;;;65.00;27.48;;;;;;;-1.38;100.00;100275.97;4968736;28;20181;-67
2020/12/08 08:55:30;;;;;;;65.65;28.92;;;;;;;-1.34;100.00;100275.66;4969393;28;20465;-66
2020/12/08 08:57:56;;;;;;;73.32;29.48;;;;;;;-1.26;100.00;100277.75;4970083;28;20041;-67
2020/12/08 09:00:22;;;;;;;66.53;27.63;;;;;;;-1.18;100.00;100282.53;4970142;28;20055;-67
2020/12/08 09:02:47;;;;;;;67.63;25.40;;;;;;;-1.11;100.00;100281.97;4969535;28;20463;-67
2020/12/08 09:05:14;;;;;;;63.20;26.67;;;;;;;-1.06;100.00;100279.03;4969815;28;20419;-67
2020/12/08 09:07:40;;;;;;;58.13;23.63;;;;;;;-0.98;100.00;100279.34;4970058;28;20031;-67
2020/12/08 09:10:06;;;;;;;58.63;24.40;;;;;;;-0.88;100.00;100283.03;4970431;28;20038;-67
2020/12/08 09:12:32;;;;;;;48.30;21.90;;;;;;;-0.87;100.00;100287.34;4969497;28;20034;-67
2020/12/08 09:15:00;;;;;;;56.08;23.05;;;;;;;-0.92;100.00;100286.81;4970074;28;20031;-67
2020/12/08 09:17:25;;;;;;;52.92;22.98;;;;;;;-0.90;100.00;100298.09;4968889;28;20225;-67
2020/12/08 09:19:53;;;;;;;67.38;29.00;;;;;;;-0.92;100.00;100294.72;4969955;28;20272;-66
2020/12/08 09:22:18;;;;;;;66.60;28.08;;;;;;;-0.92;100.00;100291.25;4967680;28;20510;-67
2020/12/08 09:24:44;;;;;;;64.70;28.52;;;;;;;-0.88;100.00;100301.47;4970244;28;20125;-67
2020/12/08 09:27:13;;;;;;;51.08;23.77;;;;;;;-0.86;100.00;100301.34;4968719;28;20031;-67
2020/12/08 09:29:39;;;;;;;79.70;32.15;;;;;;;-0.86;100.00;100302.19;4970073;28;20030;-67
2020/12/08 09:32:05;;;;;;;75.32;29.52;;;;;;;-0.83;100.00;100303.78;4968634;28;20039;-67
2020/12/08 09:34:30;;;;;;;62.58;28.10;;;;;;;-0.77;100.00;100307.78;4969091;28;20077;-67
2020/12/08 09:36:57;;;;;;;70.93;29.77;;;;;;;-0.73;100.00;100303.97;4969218;28;20448;-67
2020/12/08 09:39:23;;;;;;;64.43;27.85;;;;;;;-0.71;100.00;100302.91;4969775;28;20030;-67
2020/12/08 09:41:48;;;;;;;63.42;27.48;;;;;;;-0.63;100.00;100302.38;4969281;28;20031;-68
2020/12/08 09:44:14;;;;;;;68.38;26.58;;;;;;;-0.52;100.00;100310.38;4967614;28;20565;-66
2020/12/08 09:46:41;;;;;;;71.35;25.60;;;;;;;-0.44;100.00;100309.84;4968487;28;20030;-67
2020/12/08 09:49:07;;;;;;;65.68;28.35;;;;;;;-0.42;100.00;100307.94;4968863;28;20077;-67
2020/12/08 09:51:33;;;;;;;73.22;30.10;;;;;;;-0.33;100.00;100310.75;4968991;28;20518;-67
2020/12/08 09:53:59;;;;;;;69.15;28.67;;;;;;;-0.18;100.00;100318.53;4968364;28;20027;-68
2020/12/08 09:56:25;;;;;;;71.07;29.52;;;;;;;-0.02;100.00;100316.44;4984060;28;20489;-68
2020/12/08 09:58:52;;;;;;;69.25;26.90;;;;;;;0.07;100.00;100315.78;4968649;28;20210;-67
2020/12/08 10:01:30;;;;;;;67.20;29.33;;;;;;;0.18;100.00;100315.00;4968951;28;20249;-70
2020/12/08 10:03:56;;;;;;;70.88;27.00;;;;;;;0.33;100.00;100320.94;4967689;28;20030;-67
2020/12/08 10:06:23;;;;;;;61.47;25.98;;;;;;;0.36;100.00;100315.44;4968856;28;20177;-67
2020/12/08 10:08:49;;;;;;;62.85;28.70;;;;;;;0.37;100.00;100315.31;4968323;28;20034;-67
2020/12/08 10:11:15;;;;;;;65.00;27.77;;;;;;;0.41;100.00;100322.06;4968688;28;20395;-67
2020/12/08 10:13:41;;;;;;;63.38;29.15;;;;;;;0.43;100.00;100322.78;4982448;28;20023;-67
2020/12/08 10:16:07;;;;;;;66.20;29.38;;;;;;;0.47;100.00;100326.03;4968330;28;20031;-69
2020/12/08 10:18:33;;;;;;;71.85;28.48;;;;;;;0.51;100.00;100325.69;4968184;28;20055;-67
2020/12/08 10:20:59;;;;;;;70.57;27.55;;;;;;;0.57;100.00;100316.47;4969355;28;20027;-68
2020/12/08 10:23:25;;;;;;;58.55;27.55;;;;;;;0.61;100.00;100320.56;4967443;28;20113;-68
2020/12/08 10:25:51;;;;;;;62.40;26.20;;;;;;;0.70;100.00;100321.66;4969134;28;20177;-68
2020/12/08 10:28:16;;;;;;;60.75;25.92;;;;;;;0.78;100.00;100316.66;4968180;28;20542;-68
2020/12/08 10:30:42;;;;;;;64.97;26.33;;;;;;;0.85;100.00;100315.22;4969492;28;20042;-69
2020/12/08 10:33:08;;;;;;;57.47;25.65;;;;;;;0.99;100.00;100312.34;4967808;28;20142;-68
2020/12/08 10:35:33;;;;;;;57.28;24.38;;;;;;;1.03;100.00;100320.91;4968973;28;20444;-68
2020/12/08 10:37:59;;;;;;;62.65;26.08;;;;;;;1.08;100.00;100317.91;4967643;28;20034;-68
2020/12/08 10:40:24;;;;;;;57.70;26.30;;;;;;;1.14;100.00;100318.25;4968482;28;20545;-69
2020/12/08 10:42:51;;;;;;;60.15;27.13;;;;;;;1.22;100.00;100322.97;4967202;28;20507;-68
2020/12/08 10:45:16;;;;;;;62.20;25.10;;;;;;;1.38;100.00;100326.09;4967805;28;20479;-68
2020/12/08 10:47:42;;;;;;;56.00;24.17;;;;;;;1.46;100.00;100328.16;4967487;28;20078;-68
2020/12/08 10:50:07;;;;;;;54.40;23.67;;;;;;;1.60;100.00;100330.53;4968442;28;20030;-68
2020/12/08 10:52:33;;;;;;;51.28;24.80;;;;;;;1.62;100.00;100333.91;4967560;28;20639;-68
2020/12/08 10:54:58;;;;;;;59.05;24.70;;;;;;;1.64;100.00;100328.47;4967634;28;20567;-68
2020/12/08 10:57:24;;;;;;;55.72;23.50;;;;;;;1.72;100.00;100341.94;4967647;28;20034;-68
2020/12/08 10:59:49;;;;;;;52.45;23.58;;;;;;;1.74;100.00;100330.28;4968296;28;20113;-68